createdAt,value
2023-03-12T00:00:50.828Z,22.90
2023-03-12T00:03:17.874Z,23.70
2023-03-12T00:05:45.753Z,19.53
2023-03-12T00:08:13.516Z,18.23
2023-03-12T00:10:41.180Z,19.20
2023-03-12T00:13:08.791Z,19.93
2023-03-12T00:15:39.629Z,24.00
2023-03-12T00:18:06.905Z,21.93
2023-03-12T00:20:34.103Z,24.87
2023-03-12T00:23:01.286Z,23.87
2023-03-12T00:25:28.419Z,20.23
2023-03-12T00:27:55.620Z,21.30
2023-03-12T00:30:22.844Z,21.73
2023-03-12T00:32:50.097Z,18.50
2023-03-12T00:35:18.187Z,19.43
2023-03-12T00:37:45.592Z,19.87
2023-03-12T00:40:15.792Z,24.63
2023-03-12T00:42:42.606Z,19.30
2023-03-12T00:45:09.722Z,21.47
2023-03-12T00:47:36.862Z,18.33
2023-03-12T00:50:06.827Z,18.20
2023-03-12T00:52:33.572Z,19.33
2023-03-12T00:55:00.332Z,23.83
2023-03-12T00:57:30.179Z,19.17
2023-03-12T00:59:57.389Z,18.43
2023-03-12T01:02:24.617Z,25.97
2023-03-12T01:04:51.751Z,16.40
2023-03-12T01:07:18.655Z,18.83
2023-03-12T01:09:45.775Z,19.43
2023-03-12T01:12:12.914Z,17.70
2023-03-12T01:14:39.809Z,18.73
2023-03-12T01:17:06.966Z,16.73
2023-03-12T01:19:34.071Z,21.87
2023-03-12T01:22:00.945Z,21.83
2023-03-12T01:24:27.808Z,17.10
2023-03-12T01:26:55.011Z,20.43
2023-03-12T01:29:22.265Z,18.30
2023-03-12T01:31:49.336Z,19.60
2023-03-12T01:34:16.116Z,24.17
2023-03-12T01:36:44.424Z,18.27
2023-03-12T01:39:11.576Z,20.00
2023-03-12T01:41:38.772Z,16.70
2023-03-12T01:44:06.103Z,18.17
2023-03-12T01:46:43.165Z,17.20
2023-03-12T01:49:16.249Z,27.30
2023-03-12T01:52:06.228Z,15.60
2023-03-12T01:54:54.722Z,19.47
2023-03-12T01:57:25.834Z,20.33
2023-03-12T01:59:59.067Z,22.33
2023-03-12T02:02:28.774Z,18.53
2023-03-12T02:05:19.378Z,20.30
2023-03-12T02:07:47.082Z,24.93
2023-03-12T02:10:15.165Z,20.87
2023-03-12T02:12:42.305Z,16.77
2023-03-12T02:15:09.529Z,20.50
2023-03-12T02:17:37.150Z,16.70
2023-03-12T02:20:14.063Z,20.20
2023-03-12T02:22:46.325Z,18.30
2023-03-12T02:25:36.682Z,20.37
2023-03-12T02:28:07.226Z,21.73
2023-03-12T02:30:34.864Z,16.63
2023-03-12T02:33:06.101Z,18.20
2023-03-12T02:35:33.196Z,23.13
2023-03-12T02:38:00.399Z,16.30
2023-03-12T02:40:27.549Z,22.77
2023-03-12T02:42:55.537Z,19.67
2023-03-12T02:45:24.978Z,18.63
2023-03-12T02:47:52.138Z,20.50
2023-03-12T02:50:19.318Z,22.13
2023-03-12T02:52:46.006Z,24.33
2023-03-12T02:55:13.151Z,19.90
2023-03-12T02:57:40.701Z,20.53
2023-03-12T03:00:14.585Z,17.07
2023-03-12T03:02:42.563Z,20.63
2023-03-12T03:05:12.857Z,24.23
2023-03-12T03:07:41.667Z,15.27
2023-03-12T03:10:09.705Z,15.20
2023-03-12T03:12:37.025Z,18.87
2023-03-12T03:15:07.470Z,14.57
2023-03-12T03:17:34.620Z,18.37
2023-03-12T03:20:01.781Z,16.13
2023-03-12T03:22:29.091Z,19.53
2023-03-12T03:24:56.165Z,19.23
2023-03-12T03:27:22.962Z,21.27
2023-03-12T03:29:53.047Z,20.03
2023-03-12T03:32:19.872Z,19.37
2023-03-12T03:34:46.919Z,23.93
2023-03-12T03:37:14.074Z,24.53
2023-03-12T03:39:40.930Z,26.80
2023-03-12T03:42:07.933Z,21.80
2023-03-12T03:44:35.067Z,25.03
2023-03-12T03:47:02.497Z,23.07
2023-03-12T03:49:29.611Z,28.90
2023-03-12T03:51:56.794Z,21.40
2023-03-12T03:54:26.691Z,32.37
2023-03-12T03:56:53.857Z,27.37
2023-03-12T03:59:20.559Z,28.77
2023-03-12T04:01:47.716Z,28.23
2023-03-12T04:04:14.524Z,25.43
2023-03-12T04:06:41.354Z,29.13
2023-03-12T04:09:08.604Z,32.50
2023-03-12T04:11:35.445Z,24.50
2023-03-12T04:14:02.594Z,25.87
2023-03-12T04:16:29.903Z,25.40
2023-03-12T04:18:57.035Z,28.17
2023-03-12T04:21:24.232Z,27.70
2023-03-12T04:23:51.348Z,25.03
2023-03-12T04:26:18.532Z,22.07
2023-03-12T04:28:45.734Z,23.23
2023-03-12T04:31:12.635Z,32.93
2023-03-12T04:33:42.999Z,25.23
2023-03-12T04:36:09.967Z,24.90
2023-03-12T04:38:36.938Z,23.80
2023-03-12T04:41:12.901Z,25.57
2023-03-12T04:43:40.178Z,29.33
2023-03-12T04:46:07.778Z,27.83
2023-03-12T04:48:36.057Z,27.33
2023-03-12T04:51:04.319Z,20.13
2023-03-12T04:53:34.555Z,34.43
2023-03-12T04:56:01.754Z,24.10
2023-03-12T04:58:28.963Z,24.23
2023-03-12T05:00:56.133Z,24.33
2023-03-12T05:03:23.235Z,26.53
2023-03-12T05:05:50.593Z,24.13
2023-03-12T05:08:22.788Z,24.90
2023-03-12T05:10:49.941Z,24.50
2023-03-12T05:13:18.959Z,24.73
2023-03-12T05:15:46.960Z,25.70
2023-03-12T05:18:13.790Z,23.23
2023-03-12T05:20:43.106Z,26.13
2023-03-12T05:23:15.722Z,25.17
2023-03-12T05:25:42.565Z,23.60
2023-03-12T05:28:09.827Z,27.73
2023-03-12T05:30:37.076Z,32.57
2023-03-12T05:33:04.289Z,33.33
2023-03-12T05:35:31.372Z,39.00
2023-03-12T05:38:00.042Z,29.87
2023-03-12T05:40:27.203Z,34.67
2023-03-12T05:42:54.403Z,26.97
2023-03-12T05:45:21.590Z,30.10
2023-03-12T05:47:48.694Z,31.70
2023-03-12T05:50:16.789Z,29.93
2023-03-12T05:52:43.956Z,30.07
2023-03-12T05:55:11.087Z,31.10
2023-03-12T05:57:37.899Z,39.07
2023-03-12T06:00:05.770Z,30.50
2023-03-12T06:02:33.027Z,32.40
2023-03-12T06:04:59.847Z,32.73
2023-03-12T06:07:26.687Z,30.23
2023-03-12T06:09:56.756Z,27.10
2023-03-12T06:12:23.898Z,30.77
2023-03-12T06:14:51.072Z,44.17
2023-03-12T06:17:18.227Z,38.37
2023-03-12T06:19:44.919Z,31.33
2023-03-12T06:22:12.116Z,34.50
2023-03-12T06:24:40.969Z,28.87
2023-03-12T06:27:08.133Z,28.70
2023-03-12T06:29:35.265Z,26.80
2023-03-12T06:32:02.507Z,34.43
2023-03-12T06:34:29.650Z,45.73
2023-03-12T06:37:00.776Z,27.50
2023-03-12T06:39:27.491Z,30.73
2023-03-12T06:41:54.708Z,30.00
2023-03-12T06:44:22.096Z,25.47
2023-03-12T06:46:48.948Z,29.13
2023-03-12T06:49:16.270Z,24.40
2023-03-12T06:51:43.432Z,22.20
2023-03-12T06:54:10.225Z,27.53
2023-03-12T06:56:38.979Z,18.53
2023-03-12T06:59:06.094Z,19.70
2023-03-12T07:01:33.211Z,15.30
2023-03-12T07:04:00.345Z,8.60
2023-03-12T07:06:27.504Z,8.10
2023-03-12T07:08:54.556Z,11.47
2023-03-12T07:11:23.245Z,10.20
2023-03-12T07:13:54.615Z,10.40
2023-03-12T07:16:21.840Z,8.27
2023-03-12T07:18:48.966Z,13.03
2023-03-12T07:21:22.704Z,7.47
2023-03-12T07:23:53.527Z,22.77
2023-03-12T07:26:20.479Z,12.97
2023-03-12T07:28:47.836Z,7.17
2023-03-12T07:31:14.995Z,17.00
2023-03-12T07:33:42.293Z,14.27
2023-03-12T07:36:09.434Z,10.00
2023-03-12T07:38:36.695Z,10.07
2023-03-12T07:41:03.960Z,9.43
2023-03-12T07:43:30.783Z,8.50
2023-03-12T07:45:57.960Z,8.13
2023-03-12T07:48:25.317Z,8.20
2023-03-12T07:50:52.447Z,9.50
2023-03-12T07:53:19.158Z,12.27
2023-03-12T07:55:47.932Z,8.00
2023-03-12T07:58:16.325Z,9.93
2023-03-12T08:00:43.401Z,7.73
2023-03-12T08:03:10.866Z,11.03
2023-03-12T08:05:38.173Z,7.47
2023-03-12T08:08:05.781Z,7.30
2023-03-12T08:10:33.098Z,9.67
2023-03-12T08:13:00.256Z,15.20
2023-03-12T08:15:27.420Z,10.97
2023-03-12T08:17:54.632Z,7.23
2023-03-12T08:20:21.814Z,8.97
2023-03-12T08:22:48.666Z,14.00
2023-03-12T08:25:16.143Z,10.87
2023-03-12T08:27:45.635Z,10.63
2023-03-12T08:30:12.736Z,12.00
2023-03-12T08:32:43.069Z,9.07
2023-03-12T08:35:10.206Z,10.47
2023-03-12T08:37:37.570Z,9.93
2023-03-12T08:40:13.868Z,12.57
2023-03-12T08:42:42.718Z,12.80
2023-03-12T08:45:11.421Z,10.10
2023-03-12T08:47:41.540Z,12.87
2023-03-12T08:50:13.340Z,7.50
2023-03-12T08:55:07.510Z,7.60
2023-03-12T08:57:34.674Z,12.57
2023-03-12T09:00:01.931Z,14.10
2023-03-12T09:02:29.099Z,9.03
2023-03-12T09:04:55.870Z,9.43
2023-03-12T09:07:22.792Z,10.20
2023-03-12T09:09:50.036Z,13.80
2023-03-12T09:12:16.824Z,15.17
2023-03-12T09:15:02.950Z,9.90
2023-03-12T09:17:30.746Z,9.60
2023-03-12T09:19:57.549Z,12.13
2023-03-12T09:22:24.419Z,8.37
2023-03-12T09:24:51.300Z,8.87
2023-03-12T09:27:18.016Z,17.27
2023-03-12T09:29:57.228Z,7.87
2023-03-12T09:32:27.604Z,7.97
2023-03-12T09:34:55.095Z,9.37
2023-03-12T09:37:24.135Z,9.40
2023-03-12T09:39:52.240Z,8.43
2023-03-12T09:42:32.725Z,19.70
2023-03-12T09:45:04.562Z,13.70
2023-03-12T09:47:35.464Z,16.20
2023-03-12T09:50:10.924Z,6.70
2023-03-12T09:52:48.773Z,10.90
2023-03-12T09:55:18.781Z,11.13
2023-03-12T09:57:48.070Z,16.03
2023-03-12T10:00:21.504Z,14.67
2023-03-12T10:03:29.960Z,15.20
2023-03-12T10:06:08.729Z,11.50
2023-03-12T10:08:46.440Z,11.20
2023-03-12T10:11:19.172Z,11.73
2023-03-12T10:14:23.752Z,11.93
2023-03-12T10:16:59.953Z,13.93
2023-03-12T10:19:51.662Z,12.73
2023-03-12T10:22:48.915Z,19.27
2023-03-12T10:25:16.076Z,13.50
2023-03-12T10:27:43.499Z,19.30
2023-03-12T10:30:19.467Z,14.93
2023-03-12T10:32:52.922Z,12.90
2023-03-12T10:35:22.496Z,18.00
2023-03-12T10:37:56.740Z,15.53
2023-03-12T10:40:29.832Z,12.30
2023-03-12T10:42:57.067Z,16.80
2023-03-12T10:45:46.047Z,17.60
2023-03-12T10:48:20.539Z,14.60
2023-03-12T10:51:00.834Z,11.03
2023-03-12T10:53:30.440Z,12.90
2023-03-12T10:56:00.185Z,11.50
2023-03-12T10:58:31.174Z,15.70
2023-03-12T11:01:01.133Z,14.60
2023-03-12T11:03:29.208Z,14.50
2023-03-12T11:06:01.317Z,22.23
2023-03-12T11:08:34.234Z,17.13
2023-03-12T11:11:03.489Z,30.53
2023-03-12T11:13:39.476Z,16.50
2023-03-12T11:16:18.756Z,12.17
2023-03-12T11:18:54.471Z,20.10
2023-03-12T11:21:21.314Z,17.70
2023-03-12T11:24:08.433Z,22.40
2023-03-12T11:26:51.012Z,25.53
2023-03-12T11:29:33.099Z,23.90
2023-03-12T11:32:12.045Z,20.47
2023-03-12T11:34:40.036Z,24.80
2023-03-12T11:37:11.123Z,26.60
2023-03-12T11:39:58.880Z,30.23
2023-03-12T11:42:41.494Z,19.63
2023-03-12T11:45:24.618Z,30.17
2023-03-12T11:48:23.085Z,25.00
2023-03-12T11:50:52.902Z,31.50
2023-03-12T11:53:48.448Z,30.80
2023-03-12T11:56:27.608Z,35.93
2023-03-12T11:59:06.633Z,28.73
2023-03-12T12:01:54.472Z,29.10
2023-03-12T12:04:33.275Z,32.43
2023-03-12T12:07:14.221Z,25.00
2023-03-12T12:09:58.952Z,25.03
2023-03-12T12:12:46.014Z,27.90
2023-03-12T12:15:15.758Z,25.43
2023-03-12T12:17:57.083Z,25.73
2023-03-12T12:20:42.477Z,30.37
2023-03-12T12:23:22.721Z,26.07
2023-03-12T12:26:13.058Z,25.43
2023-03-12T12:28:54.171Z,24.90
2023-03-12T12:31:41.657Z,25.60
2023-03-12T12:34:14.258Z,22.57
2023-03-12T12:36:46.478Z,17.90
2023-03-12T12:39:26.854Z,21.70
2023-03-12T12:41:57.186Z,18.47
2023-03-12T12:44:36.995Z,24.23
2023-03-12T12:47:06.847Z,23.37
2023-03-12T12:49:34.050Z,17.87
2023-03-12T12:52:04.912Z,16.40
2023-03-12T12:54:51.850Z,17.20
2023-03-12T12:57:21.192Z,20.50
2023-03-12T13:00:26.136Z,19.27
2023-03-12T13:02:55.497Z,18.53
2023-03-12T13:05:37.159Z,25.27
2023-03-12T13:08:05.610Z,23.83
2023-03-12T13:10:35.381Z,26.73
2023-03-12T13:13:12.714Z,22.43
2023-03-12T13:15:43.790Z,21.97
2023-03-12T13:18:11.727Z,22.70
2023-03-12T13:20:52.370Z,21.80
2023-03-12T13:23:55.408Z,24.20
2023-03-12T13:26:49.122Z,22.53
2023-03-12T13:29:46.186Z,27.73
2023-03-12T13:32:34.792Z,23.90
2023-03-12T13:35:27.413Z,31.77
2023-03-12T13:37:54.567Z,32.10
2023-03-12T13:40:30.297Z,28.20
2023-03-12T13:43:30.344Z,26.67
2023-03-12T13:46:07.415Z,33.93
2023-03-12T13:48:36.387Z,36.23
2023-03-12T13:51:16.115Z,31.50
2023-03-12T13:53:48.304Z,31.73
2023-03-12T13:56:19.286Z,29.53
2023-03-12T13:59:13.701Z,34.40
2023-03-12T14:01:50.095Z,30.60
2023-03-12T14:04:29.297Z,35.70
2023-03-12T14:07:05.855Z,35.87
2023-03-12T14:09:40.271Z,33.57
2023-03-12T14:12:52.803Z,37.50
2023-03-12T14:15:49.656Z,33.13
2023-03-12T14:18:23.669Z,35.50
2023-03-12T14:20:55.941Z,33.23
2023-03-12T14:23:26.989Z,32.47
2023-03-12T14:26:06.701Z,35.03
2023-03-12T14:28:40.704Z,39.67
2023-03-12T14:31:23.913Z,45.47
2023-03-12T14:34:01.868Z,44.27
2023-03-12T14:37:16.689Z,43.10
2023-03-12T14:40:14.253Z,50.30
2023-03-12T14:42:41.748Z,57.50
2023-03-12T14:45:12.482Z,52.63
2023-03-12T14:47:44.463Z,47.43
2023-03-12T14:50:26.087Z,57.77
2023-03-12T14:52:53.346Z,57.23
2023-03-12T14:55:23.279Z,54.70
2023-03-12T14:58:02.564Z,64.57
2023-03-12T15:00:29.767Z,59.57
2023-03-12T15:02:59.776Z,64.27
2023-03-12T15:05:26.848Z,60.87
2023-03-12T15:08:00.881Z,65.80
2023-03-12T15:10:30.076Z,72.00
2023-03-12T15:12:59.766Z,65.43
2023-03-12T15:15:45.686Z,60.83
2023-03-12T15:18:26.650Z,69.63
2023-03-12T15:20:54.112Z,78.73
2023-03-12T15:23:22.654Z,68.60
2023-03-12T15:26:08.153Z,69.53
2023-03-12T15:28:35.053Z,65.20
2023-03-12T15:31:11.829Z,65.33
2023-03-12T15:33:39.996Z,67.57
2023-03-12T15:36:28.426Z,64.63
2023-03-12T15:39:03.068Z,62.60
2023-03-12T15:41:48.748Z,70.20
2023-03-12T15:44:21.718Z,64.50
2023-03-12T15:46:51.925Z,69.60
2023-03-12T15:49:27.038Z,66.37
2023-03-12T15:52:22.026Z,64.30
2023-03-12T15:55:07.590Z,69.90
2023-03-12T15:57:36.889Z,73.20
2023-03-12T16:00:17.625Z,67.67
2023-03-12T16:03:05.999Z,69.87
2023-03-12T16:05:38.451Z,74.33
2023-03-12T16:08:11.570Z,68.37
2023-03-12T16:10:39.550Z,70.90
2023-03-12T16:13:06.409Z,79.90
2023-03-12T16:15:37.001Z,81.77
2023-03-12T16:18:04.540Z,73.40
2023-03-12T16:20:31.392Z,70.30
2023-03-12T16:22:58.218Z,83.73
2023-03-12T16:25:25.842Z,69.97
2023-03-12T16:27:56.730Z,73.43
2023-03-12T16:30:23.754Z,83.37
2023-03-12T16:32:50.643Z,74.97
2023-03-12T16:35:19.692Z,67.33
2023-03-12T16:37:47.125Z,61.10
2023-03-12T16:40:24.032Z,68.20
2023-03-12T16:43:03.555Z,60.13
2023-03-12T16:45:33.743Z,63.60
2023-03-12T16:48:03.170Z,65.87
2023-03-12T16:50:30.805Z,72.73
2023-03-12T16:52:58.763Z,65.70
2023-03-12T16:55:30.329Z,77.47
2023-03-12T16:58:00.481Z,67.23
2023-03-12T17:00:30.225Z,70.00
2023-03-12T17:02:58.085Z,67.33
2023-03-12T17:05:26.909Z,56.53
2023-03-12T17:07:54.139Z,61.70
2023-03-12T17:10:22.275Z,53.50
2023-03-12T17:12:49.579Z,43.93
2023-03-12T17:15:25.890Z,50.90
2023-03-12T17:17:55.608Z,52.63
2023-03-12T17:20:24.411Z,45.27
2023-03-12T17:22:51.237Z,38.20
2023-03-12T17:25:28.356Z,41.63
2023-03-12T17:27:58.078Z,32.07
2023-03-12T17:30:29.442Z,34.27
2023-03-12T17:33:11.709Z,35.10
2023-03-12T17:35:39.895Z,40.50
2023-03-12T17:38:07.684Z,34.00
2023-03-12T17:40:36.005Z,39.30
2023-03-12T17:43:02.808Z,34.10
2023-03-12T17:45:29.611Z,39.83
2023-03-12T17:47:56.405Z,49.17
2023-03-12T17:50:23.247Z,36.07
2023-03-12T17:52:50.753Z,32.20
2023-03-12T17:55:17.757Z,34.77
2023-03-12T17:57:44.785Z,34.43
2023-03-12T18:00:13.177Z,31.43
2023-03-12T18:02:41.426Z,29.20
2023-03-12T18:05:10.834Z,40.43
2023-03-12T18:07:38.322Z,36.47
2023-03-12T18:10:07.617Z,40.60
2023-03-12T18:12:34.971Z,40.70
2023-03-12T18:15:02.250Z,45.17
2023-03-12T18:17:29.211Z,36.70
2023-03-12T18:19:56.270Z,35.97
2023-03-12T18:22:24.530Z,42.17
2023-03-12T18:24:51.570Z,42.93
2023-03-12T18:27:18.751Z,43.93
2023-03-12T18:29:45.593Z,37.80
2023-03-12T18:32:12.636Z,36.60
2023-03-12T18:34:42.346Z,30.33
2023-03-12T18:37:09.152Z,25.97
2023-03-12T18:39:35.928Z,41.73
2023-03-12T18:42:02.691Z,35.17
2023-03-12T18:44:29.578Z,37.87
2023-03-12T18:46:56.456Z,36.57
2023-03-12T18:49:23.386Z,40.57
2023-03-12T18:51:54.537Z,46.27
2023-03-12T18:54:23.576Z,40.53
2023-03-12T18:56:51.400Z,42.43
2023-03-12T18:59:18.570Z,32.70
2023-03-12T19:01:45.471Z,33.27
2023-03-12T19:04:16.192Z,50.97
2023-03-12T19:06:50.765Z,57.37
2023-03-12T19:09:20.587Z,34.53
2023-03-12T19:11:49.893Z,35.20
2023-03-12T19:14:18.211Z,36.43
2023-03-12T19:16:45.022Z,38.00
2023-03-12T19:19:11.994Z,43.60
2023-03-12T19:21:39.183Z,33.67
2023-03-12T19:24:06.012Z,31.27
2023-03-12T19:26:32.862Z,38.53
2023-03-12T19:28:59.655Z,43.53
2023-03-12T19:31:26.629Z,41.30
2023-03-12T19:33:53.419Z,40.50
2023-03-12T19:36:20.543Z,38.90
2023-03-12T19:38:47.362Z,51.93
2023-03-12T19:41:15.333Z,44.13
2023-03-12T19:43:43.277Z,50.17
2023-03-12T19:46:10.207Z,63.87
2023-03-12T19:48:39.126Z,37.80
2023-03-12T19:51:09.205Z,51.40
2023-03-12T19:53:36.770Z,50.87
2023-03-12T19:56:04.886Z,50.90
2023-03-12T19:58:33.827Z,51.67
2023-03-12T20:01:02.411Z,42.77
2023-03-12T20:03:30.796Z,43.60
2023-03-12T20:06:00.029Z,56.90
2023-03-12T20:08:30.503Z,44.23
2023-03-12T20:11:05.615Z,45.33
2023-03-12T20:13:34.322Z,60.67
2023-03-12T20:16:02.161Z,46.13
2023-03-12T20:18:29.260Z,44.40
2023-03-12T20:20:56.440Z,46.33
2023-03-12T20:23:23.347Z,50.00
2023-03-12T20:25:51.034Z,39.83
2023-03-12T20:28:18.096Z,44.43
2023-03-12T20:30:45.172Z,55.17
2023-03-12T20:33:12.523Z,43.57
2023-03-12T20:35:39.632Z,43.43
2023-03-12T20:38:06.795Z,55.20
2023-03-12T20:40:33.928Z,45.17
2023-03-12T20:43:04.702Z,39.03
2023-03-12T20:45:33.315Z,39.37
2023-03-12T20:48:00.588Z,37.07
2023-03-12T20:50:28.282Z,44.03
2023-03-12T20:52:55.120Z,37.77
2023-03-12T20:55:22.000Z,38.53
2023-03-12T20:57:48.885Z,39.63
2023-03-12T21:00:15.997Z,39.43
2023-03-12T21:02:43.162Z,41.37
2023-03-12T21:05:11.412Z,35.03
2023-03-12T21:07:38.340Z,42.90
2023-03-12T21:10:05.942Z,38.80
2023-03-12T21:12:33.189Z,42.63
2023-03-12T21:15:06.172Z,34.50
2023-03-12T21:17:34.569Z,44.23
2023-03-12T21:20:03.233Z,52.63
2023-03-12T21:22:31.565Z,32.40
2023-03-12T21:24:58.667Z,33.97
2023-03-12T21:27:25.441Z,38.60
2023-03-12T21:29:53.559Z,40.90
2023-03-12T21:32:21.940Z,29.93
2023-03-12T21:34:49.263Z,25.77
2023-03-12T21:37:16.873Z,40.53
2023-03-12T21:39:43.689Z,31.57
2023-03-12T21:42:10.496Z,35.90
2023-03-12T21:44:38.017Z,34.53
2023-03-12T21:47:05.234Z,50.63
2023-03-12T21:49:35.933Z,36.27
2023-03-12T21:52:03.865Z,36.43
2023-03-12T21:54:32.862Z,37.60
2023-03-12T21:57:02.807Z,36.67
2023-03-12T21:59:30.468Z,42.77
2023-03-12T22:01:57.649Z,30.33
2023-03-12T22:04:25.244Z,35.60
2023-03-12T22:06:52.194Z,24.73
2023-03-12T22:09:19.410Z,35.63
2023-03-12T22:11:46.120Z,30.93
2023-03-12T22:14:12.953Z,27.53
2023-03-12T22:16:39.768Z,38.53
2023-03-12T22:19:07.856Z,27.07
2023-03-12T22:21:34.988Z,37.27
2023-03-12T22:24:02.847Z,30.57
2023-03-12T22:26:29.929Z,33.80
2023-03-12T22:28:58.071Z,27.33
2023-03-12T22:31:27.009Z,25.33
2023-03-12T22:33:53.795Z,24.40
2023-03-12T22:36:21.053Z,42.13
2023-03-12T22:38:48.229Z,26.83
2023-03-12T22:41:26.587Z,31.40
2023-03-12T22:43:55.795Z,34.60
2023-03-12T22:46:25.001Z,37.70
2023-03-12T22:48:54.108Z,39.83
2023-03-12T22:51:21.003Z,45.30
2023-03-12T22:53:47.726Z,37.00
2023-03-12T22:56:14.790Z,32.10
2023-03-12T22:58:41.831Z,33.53
2023-03-12T23:01:17.037Z,38.03
2023-03-12T23:03:45.010Z,38.37
2023-03-12T23:06:14.014Z,39.10
2023-03-12T23:08:41.251Z,35.07
2023-03-12T23:11:09.490Z,29.63
2023-03-12T23:13:40.154Z,32.33
2023-03-12T23:16:12.563Z,29.07
2023-03-12T23:18:39.543Z,31.10
2023-03-12T23:21:08.959Z,24.63
2023-03-12T23:23:37.428Z,39.43
2023-03-12T23:26:04.345Z,38.87
2023-03-12T23:28:32.070Z,36.67
2023-03-12T23:31:05.005Z,35.20
2023-03-12T23:33:33.438Z,32.93
2023-03-12T23:36:06.545Z,31.17
2023-03-12T23:38:37.305Z,33.80
2023-03-12T23:41:11.297Z,34.57
2023-03-12T23:43:38.390Z,38.27
2023-03-12T23:46:07.085Z,41.10
2023-03-12T23:48:35.488Z,37.67
2023-03-12T23:51:07.019Z,24.67
2023-03-12T23:53:34.953Z,32.47
2023-03-12T23:56:03.885Z,41.47
2023-03-12T23:58:30.745Z,28.80
